createdAt,value
2018-09-15T00:01:02.336Z,98189.69
2018-09-15T00:03:31.260Z,98190.69
2018-09-15T00:05:59.816Z,98193.78
2018-09-15T00:08:28.380Z,98196.84
2018-09-15T00:10:56.907Z,98195.58
2018-09-15T00:13:25.588Z,98205.25
2018-09-15T00:15:54.689Z,98201.16
2018-09-15T00:18:27.636Z,98200.37
2018-09-15T00:20:56.091Z,98206.62
2018-09-15T00:23:25.690Z,98198.54
2018-09-15T00:25:55.335Z,98201.03
2018-09-15T00:28:23.833Z,98196.04
2018-09-15T00:30:52.262Z,98200.23
2018-09-15T00:33:21.922Z,98203.76
2018-09-15T00:35:50.447Z,98203.14
2018-09-15T00:38:18.961Z,98199.53
2018-09-15T00:40:47.577Z,98199.23
2018-09-15T00:43:16.048Z,98201.44
2018-09-15T00:45:44.555Z,98209.45
2018-09-15T00:48:13.739Z,98203.01
2018-09-15T00:50:42.393Z,98213.83
2018-09-15T00:53:10.815Z,98204.80
2018-09-15T00:55:39.497Z,98207.05
2018-09-15T00:58:08.486Z,98213.54
2018-09-15T01:00:37.058Z,98212.50
2018-09-15T01:03:05.809Z,98211.82
2018-09-15T01:05:35.184Z,98221.57
2018-09-15T01:08:03.627Z,98218.63
2018-09-15T01:10:38.964Z,98214.38
2018-09-15T01:13:07.502Z,98217.10
2018-09-15T01:15:36.162Z,98215.33
2018-09-15T01:18:09.719Z,98221.09
2018-09-15T01:20:38.173Z,98221.34
2018-09-15T01:23:08.019Z,98218.30
2018-09-15T01:25:36.408Z,98217.02
2018-09-15T01:28:05.498Z,98221.17
2018-09-15T01:30:36.267Z,98222.63
2018-09-15T01:33:04.908Z,98219.16
2018-09-15T01:35:33.838Z,98222.49
2018-09-15T01:38:03.069Z,98221.93
2018-09-15T01:40:31.600Z,98223.90
2018-09-15T01:43:00.725Z,98219.17
2018-09-15T01:45:29.470Z,98219.83
2018-09-15T01:47:57.970Z,98221.24
2018-09-15T01:50:26.531Z,98216.95
2018-09-15T01:52:55.536Z,98218.92
2018-09-15T01:55:23.994Z,98228.38
2018-09-15T01:57:53.681Z,98224.77
2018-09-15T02:00:22.193Z,98229.12
2018-09-15T02:02:50.653Z,98215.98
2018-09-15T02:05:19.190Z,98227.59
2018-09-15T02:07:47.807Z,98228.00
2018-09-15T02:10:17.514Z,98235.10
2018-09-15T02:12:46.019Z,98241.35
2018-09-15T02:15:14.512Z,98238.41
2018-09-15T02:17:44.097Z,98239.70
2018-09-15T02:20:13.581Z,98238.42
2018-09-15T02:22:43.227Z,98235.20
2018-09-15T02:25:11.706Z,98230.87
2018-09-15T02:27:41.273Z,98230.09
2018-09-15T02:30:09.817Z,98236.97
2018-09-15T02:32:38.291Z,98241.63
2018-09-15T02:35:06.936Z,98245.38
2018-09-15T02:37:35.442Z,98243.45
2018-09-15T02:40:04.043Z,98240.17
2018-09-15T02:42:32.692Z,98243.19
2018-09-15T02:45:02.332Z,98243.19
2018-09-15T02:47:31.963Z,98243.45
2018-09-15T02:50:00.381Z,98248.39
2018-09-15T02:52:28.885Z,98247.42
2018-09-15T02:54:57.441Z,98244.33
2018-09-15T02:57:27.123Z,98242.49
2018-09-15T02:59:55.547Z,98255.91
2018-09-15T03:02:24.069Z,98251.59
2018-09-15T03:04:53.697Z,98253.67
2018-09-15T03:07:22.863Z,98255.28
2018-09-15T03:09:55.592Z,98257.52
2018-09-15T03:12:24.203Z,98256.93
2018-09-15T03:14:52.864Z,98258.84
2018-09-15T03:17:21.338Z,98261.02
2018-09-15T03:19:49.910Z,98267.01
2018-09-15T03:22:18.653Z,98269.53
2018-09-15T03:24:47.092Z,98269.41
2018-09-15T03:27:16.283Z,98274.09
2018-09-15T03:29:45.116Z,98279.02
2018-09-15T03:32:13.692Z,98280.77
2018-09-15T03:34:43.507Z,98282.09
2018-09-15T03:37:12.855Z,98278.58
2018-09-15T03:39:42.012Z,98277.94
2018-09-15T03:42:10.989Z,98278.89
2018-09-15T03:44:39.435Z,98279.04
2018-09-15T03:47:08.121Z,98282.88
2018-09-15T03:49:36.646Z,98287.36
2018-09-15T03:52:06.288Z,98282.65
2018-09-15T03:54:34.767Z,98284.73
2018-09-15T03:57:04.452Z,98281.53
2018-09-15T03:59:32.931Z,98288.17
2018-09-15T04:02:01.344Z,98288.06
2018-09-15T04:04:30.011Z,98286.70
2018-09-15T04:06:58.471Z,98293.50
2018-09-15T04:09:27.140Z,98303.19
2018-09-15T04:11:55.665Z,98309.85
2018-09-15T04:14:25.399Z,98302.18
2018-09-15T04:16:53.853Z,98301.46
2018-09-15T04:19:22.262Z,98303.85
2018-09-15T04:21:51.438Z,98314.73
2018-09-15T04:24:20.453Z,98317.86
2018-09-15T04:26:49.614Z,98310.31
2018-09-15T04:29:18.440Z,98316.34
2018-09-15T04:31:46.961Z,98319.72
2018-09-15T04:34:15.484Z,98324.73
2018-09-15T04:36:44.170Z,98325.36
2018-09-15T04:39:13.451Z,98323.45
2018-09-15T04:41:42.409Z,98329.53
2018-09-15T04:44:10.800Z,98334.64
2018-09-15T04:46:39.401Z,98338.06
2018-09-15T04:49:07.956Z,98348.84
2018-09-15T04:51:36.512Z,98350.68
2018-09-15T04:54:04.955Z,98351.90
2018-09-15T04:56:33.620Z,98351.23
2018-09-15T04:59:03.298Z,98355.00
2018-09-15T05:01:33.082Z,98361.23
2018-09-15T05:04:01.714Z,98368.28
2018-09-15T05:06:30.895Z,98365.95
2018-09-15T05:08:59.426Z,98365.42
2018-09-15T05:11:28.747Z,98366.39
2018-09-15T05:13:57.315Z,98367.72
2018-09-15T05:16:25.778Z,98375.01
2018-09-15T05:18:54.693Z,98375.42
2018-09-15T05:21:23.221Z,98372.60
2018-09-15T05:23:52.231Z,98382.46
2018-09-15T05:26:20.728Z,98382.70
2018-09-15T05:28:50.478Z,98376.56
2018-09-15T05:31:19.520Z,98380.05
2018-09-15T05:33:48.058Z,98381.97
2018-09-15T05:36:18.666Z,98385.50
2018-09-15T05:38:47.264Z,98380.05
2018-09-15T05:41:17.032Z,98388.80
2018-09-15T05:43:45.512Z,98391.49
2018-09-15T05:46:14.041Z,98392.70
2018-09-15T05:48:42.589Z,98398.55
2018-09-15T05:51:11.706Z,98407.47
2018-09-15T05:53:40.662Z,98404.39
2018-09-15T05:56:09.261Z,98403.68
2018-09-15T05:58:38.945Z,98401.03
2018-09-15T06:01:07.632Z,98406.97
2018-09-15T06:03:36.934Z,98413.25
2018-09-15T06:06:05.532Z,98413.41
2018-09-15T06:08:34.004Z,98413.72
2018-09-15T06:11:02.506Z,98416.04
2018-09-15T06:13:32.113Z,98411.39
2018-09-15T06:16:01.212Z,98409.41
2018-09-15T06:18:30.071Z,98413.48
2018-09-15T06:20:58.594Z,98410.61
2018-09-15T06:23:27.197Z,98416.05
2018-09-15T06:25:55.809Z,98413.38
2018-09-15T06:28:24.313Z,98421.28
2018-09-15T06:30:54.115Z,98419.03
2018-09-15T06:33:22.664Z,98424.32
2018-09-15T06:35:51.173Z,98426.44
2018-09-15T06:38:20.753Z,98425.95
2018-09-15T06:40:50.198Z,98423.52
2018-09-15T06:43:19.867Z,98424.52
2018-09-15T06:45:49.068Z,98436.25
2018-09-15T06:48:17.830Z,98433.83
2018-09-15T06:50:47.048Z,98435.91
2018-09-15T06:53:16.001Z,98445.42
2018-09-15T06:55:44.554Z,98444.95
2018-09-15T06:58:13.909Z,98448.92
2018-09-15T07:00:42.683Z,98452.38
2018-09-15T07:03:11.174Z,98456.73
2018-09-15T07:05:40.370Z,98458.95
2018-09-15T07:08:09.602Z,98464.21
2018-09-15T07:10:38.894Z,98465.50
2018-09-15T07:13:07.484Z,98471.27
2018-09-15T07:15:37.254Z,98472.66
2018-09-15T07:18:05.870Z,98468.21
2018-09-15T07:20:34.407Z,98474.16
2018-09-15T07:23:02.873Z,98470.15
2018-09-15T07:25:31.374Z,98488.67
2018-09-15T07:27:59.844Z,98478.92
2018-09-15T07:30:29.722Z,98485.84
2018-09-15T07:32:58.636Z,98485.58
2018-09-15T07:35:27.426Z,98489.41
2018-09-15T07:37:56.283Z,98486.87
2018-09-15T07:40:24.768Z,98492.59
2018-09-15T07:42:53.283Z,98492.09
2018-09-15T07:45:22.807Z,98490.22
2018-09-15T07:47:53.397Z,98490.67
2018-09-15T07:50:21.847Z,98487.45
2018-09-15T07:52:50.357Z,98494.41
2018-09-15T07:55:18.891Z,98487.21
2018-09-15T07:57:47.773Z,98492.27
2018-09-15T08:00:16.258Z,98492.85
2018-09-15T08:02:45.523Z,98489.55
2018-09-15T08:05:14.113Z,98489.50
2018-09-15T08:07:42.694Z,98490.84
2018-09-15T08:10:11.332Z,98491.41
2018-09-15T08:12:40.495Z,98486.81
2018-09-15T08:15:09.185Z,98489.60
2018-09-15T08:17:37.730Z,98491.56
2018-09-15T08:20:06.242Z,98493.07
2018-09-15T08:22:34.760Z,98485.86
2018-09-15T08:25:04.846Z,98486.21
2018-09-15T08:27:33.360Z,98490.00
2018-09-15T08:30:02.472Z,98485.98
2018-09-15T08:32:31.338Z,98488.02
2018-09-15T08:34:59.830Z,98481.59
2018-09-15T08:37:28.402Z,98488.73
2018-09-15T08:39:57.077Z,98485.44
2018-09-15T08:42:26.584Z,98486.97
2018-09-15T08:44:56.083Z,98489.72
2018-09-15T08:47:24.673Z,98490.04
2018-09-15T08:49:53.166Z,98487.99
2018-09-15T08:52:22.800Z,98495.58
2018-09-15T08:54:52.630Z,98486.61
2018-09-15T08:57:21.086Z,98491.34
2018-09-15T08:59:50.180Z,98483.30
2018-09-15T09:02:19.258Z,98505.27
2018-09-15T09:04:47.714Z,98504.64
2018-09-15T09:07:17.307Z,98493.21
2018-09-15T09:09:45.884Z,98498.17
2018-09-15T09:12:14.809Z,98500.07
2018-09-15T09:14:43.289Z,98508.70
2018-09-15T09:17:12.454Z,98512.51
2018-09-15T09:19:42.220Z,98511.17
2018-09-15T09:22:11.208Z,98507.50
2018-09-15T09:24:39.921Z,98507.47
2018-09-15T09:27:08.550Z,98510.58
2018-09-15T09:29:37.168Z,98507.03
2018-09-15T09:32:06.018Z,98511.21
2018-09-15T09:34:34.510Z,98506.42
2018-09-15T09:37:03.853Z,98507.62
2018-09-15T09:39:32.499Z,98509.89
2018-09-15T09:42:02.162Z,98511.54
2018-09-15T09:44:31.688Z,98500.55
2018-09-15T09:47:00.988Z,98506.94
2018-09-15T09:49:29.460Z,98508.14
2018-09-15T09:51:58.889Z,98512.61
2018-09-15T09:54:27.586Z,98511.31
2018-09-15T09:56:56.118Z,98504.25
2018-09-15T09:59:24.870Z,98507.23
2018-09-15T10:01:58.642Z,98500.06
2018-09-15T10:04:27.734Z,98498.02
2018-09-15T10:06:56.298Z,98489.17
2018-09-15T10:09:25.117Z,98490.66
2018-09-15T10:11:53.800Z,98493.69
2018-09-15T10:14:22.876Z,98493.20
2018-09-15T10:16:52.084Z,98495.86
2018-09-15T10:19:21.415Z,98501.55
2018-09-15T10:21:50.790Z,98488.34
2018-09-15T10:24:19.378Z,98494.42
2018-09-15T10:26:48.109Z,98491.41
2018-09-15T10:29:17.265Z,98480.70
2018-09-15T10:31:45.866Z,98487.43
2018-09-15T10:34:14.355Z,98483.05
2018-09-15T10:36:42.922Z,98484.37
2018-09-15T10:39:11.900Z,98482.89
2018-09-15T10:41:41.416Z,98480.44
2018-09-15T10:44:10.930Z,98488.80
2018-09-15T10:46:39.440Z,98482.88
2018-09-15T10:49:08.605Z,98486.31
2018-09-15T10:51:43.848Z,98489.48
2018-09-15T10:54:13.048Z,98485.50
2018-09-15T10:56:41.554Z,98483.49
2018-09-15T10:59:10.752Z,98485.84
2018-09-15T11:01:39.412Z,98484.64
2018-09-15T11:04:08.093Z,98492.17
2018-09-15T11:06:36.873Z,98491.08
2018-09-15T11:09:08.586Z,98496.02
2018-09-15T11:11:37.057Z,98483.61
2018-09-15T11:14:05.562Z,98484.50
2018-09-15T11:16:34.100Z,98488.48
2018-09-15T11:19:03.253Z,98484.80
2018-09-15T11:21:31.881Z,98489.09
2018-09-15T11:24:00.434Z,98496.62
2018-09-15T11:26:28.945Z,98499.48
2018-09-15T11:28:57.560Z,98498.64
2018-09-15T11:31:26.121Z,98495.00
2018-09-15T11:33:54.671Z,98489.84
2018-09-15T11:36:23.363Z,98484.63
2018-09-15T11:38:52.029Z,98494.80
2018-09-15T11:41:20.792Z,98486.20
2018-09-15T11:43:49.792Z,98478.24
2018-09-15T11:46:18.802Z,98482.63
2018-09-15T11:48:47.311Z,98472.42
2018-09-15T11:51:15.903Z,98477.86
2018-09-15T11:53:44.516Z,98475.60
2018-09-15T11:56:12.977Z,98475.36
2018-09-15T11:58:41.639Z,98470.81
2018-09-15T12:01:10.217Z,98473.16
2018-09-15T12:03:39.707Z,98468.17
2018-09-15T12:06:09.497Z,98475.23
2018-09-15T12:08:39.478Z,98476.02
2018-09-15T12:11:08.242Z,98474.89
2018-09-15T12:13:36.914Z,98471.17
2018-09-15T12:16:05.452Z,98468.83
2018-09-15T12:18:34.051Z,98475.59
2018-09-15T12:21:09.440Z,98470.81
2018-09-15T12:23:38.147Z,98464.23
2018-09-15T12:26:06.703Z,98466.00
2018-09-15T12:28:36.178Z,98468.69
2018-09-15T12:31:06.026Z,98458.83
2018-09-15T12:33:35.334Z,98467.86
2018-09-15T12:36:03.782Z,98454.41
2018-09-15T12:38:32.404Z,98458.00
2018-09-15T12:41:00.945Z,98454.19
2018-09-15T12:43:29.422Z,98460.27
2018-09-15T12:45:59.107Z,98463.86
2018-09-15T12:48:27.609Z,98459.24
2018-09-15T12:50:56.254Z,98454.31
2018-09-15T12:53:24.779Z,98452.82
2018-09-15T12:55:53.297Z,98451.88
2018-09-15T12:58:22.377Z,98444.96
2018-09-15T13:00:50.910Z,98439.77
2018-09-15T13:03:19.479Z,98454.24
2018-09-15T13:05:48.450Z,98441.27
2018-09-15T13:08:18.075Z,98449.48
2018-09-15T13:10:47.215Z,98448.67
2018-09-15T13:13:16.125Z,98445.88
2018-09-15T13:15:44.660Z,98440.05
2018-09-15T13:18:14.499Z,98436.52
2018-09-15T13:20:43.417Z,98435.20
2018-09-15T13:23:12.032Z,98424.30
2018-09-15T13:25:40.533Z,98421.58
2018-09-15T13:28:09.043Z,98417.06
2018-09-15T13:30:37.962Z,98419.41
2018-09-15T13:33:06.561Z,98425.30
2018-09-15T13:35:36.770Z,98432.58
2018-09-15T13:38:05.364Z,98425.94
2018-09-15T13:40:34.242Z,98419.88
2018-09-15T13:43:02.802Z,98426.95
2018-09-15T13:45:32.496Z,98418.97
2018-09-15T13:48:01.191Z,98421.22
2018-09-15T13:50:30.535Z,98417.58
2018-09-15T13:52:59.015Z,98424.19
2018-09-15T13:55:27.589Z,98413.59
2018-09-15T13:57:56.155Z,98415.36
2018-09-15T14:00:24.741Z,98419.39
2018-09-15T14:02:53.933Z,98420.05
2018-09-15T14:05:22.532Z,98418.34
2018-09-15T14:07:51.049Z,98411.59
2018-09-15T14:10:19.842Z,98416.05
2018-09-15T14:12:48.620Z,98419.23
2018-09-15T14:15:17.270Z,98409.27
2018-09-15T14:17:46.218Z,98416.03
2018-09-15T14:20:14.756Z,98413.56
2018-09-15T14:22:44.632Z,98408.71
2018-09-15T14:25:14.851Z,98406.81
2018-09-15T14:27:43.368Z,98408.44
2018-09-15T14:30:11.885Z,98411.92
2018-09-15T14:32:40.807Z,98407.56
2018-09-15T14:35:09.760Z,98402.63
2018-09-15T14:37:39.061Z,98403.28
2018-09-15T14:40:07.640Z,98401.33
2018-09-15T14:42:36.161Z,98400.44
2018-09-15T14:45:05.345Z,98402.89
2018-09-15T14:47:33.979Z,98401.47
2018-09-15T14:50:03.019Z,98397.42
2018-09-15T14:52:31.501Z,98398.81
2018-09-15T14:55:00.027Z,98392.09
2018-09-15T14:57:28.513Z,98397.49
2018-09-15T14:59:57.077Z,98404.91
2018-09-15T15:02:25.631Z,98395.78
2018-09-15T15:04:55.114Z,98359.12
2018-09-15T15:07:23.849Z,98395.39
2018-09-15T15:09:53.238Z,98395.23
2018-09-15T15:12:26.113Z,98393.95
2018-09-15T15:14:55.409Z,98389.39
2018-09-15T15:17:24.671Z,98393.05
2018-09-15T15:19:53.417Z,98393.07
2018-09-15T15:22:22.018Z,98394.47
2018-09-15T15:24:51.207Z,98402.00
2018-09-15T15:27:20.105Z,98395.89
2018-09-15T15:29:49.626Z,98394.14
2018-09-15T15:32:18.164Z,98385.02
2018-09-15T15:34:46.924Z,98388.61
2018-09-15T15:37:16.266Z,98395.02
2018-09-15T15:39:44.863Z,98391.94
2018-09-15T15:42:13.662Z,98389.13
2018-09-15T15:44:42.143Z,98394.25
2018-09-15T15:47:10.743Z,98394.99
2018-09-15T15:49:39.396Z,98391.19
2018-09-15T15:52:07.943Z,98397.89
2018-09-15T15:54:36.504Z,98394.30
2018-09-15T15:57:05.103Z,98402.36
2018-09-15T15:59:33.627Z,98409.02
2018-09-15T16:02:02.694Z,98411.64
2018-09-15T16:04:31.682Z,98412.27
2018-09-15T16:07:00.096Z,98410.64
2018-09-15T16:09:30.705Z,98416.36
2018-09-15T16:11:59.753Z,98412.70
2018-09-15T16:14:29.062Z,98416.20
2018-09-15T16:16:57.611Z,98411.64
2018-09-15T16:19:26.253Z,98418.31
2018-09-15T16:21:55.577Z,98417.86
2018-09-15T16:24:24.227Z,98412.14
2018-09-15T16:26:52.784Z,98418.31
2018-09-15T16:29:22.225Z,98410.31
2018-09-15T16:31:50.774Z,98411.62
2018-09-15T16:34:20.194Z,98419.65
2018-09-15T16:36:49.659Z,98417.55
2018-09-15T16:39:18.320Z,98416.75
2018-09-15T16:41:46.897Z,98423.37
2018-09-15T16:44:15.485Z,98425.26
2018-09-15T16:46:44.042Z,98426.90
2018-09-15T16:49:14.241Z,98430.73
2018-09-15T16:51:43.479Z,98431.05
2018-09-15T16:54:11.969Z,98435.17
2018-09-15T16:56:40.564Z,98434.46
2018-09-15T16:59:09.827Z,98439.02
2018-09-15T17:01:38.413Z,98436.24
2018-09-15T17:04:07.022Z,98435.58
2018-09-15T17:06:35.525Z,98439.87
2018-09-15T17:09:07.041Z,98444.20
2018-09-15T17:11:36.192Z,98450.02
2018-09-15T17:14:05.286Z,98450.05
2018-09-15T17:16:33.896Z,98443.09
2018-09-15T17:19:02.995Z,98446.95
2018-09-15T17:21:31.977Z,98444.81
2018-09-15T17:24:01.818Z,98438.98
2018-09-15T17:26:31.086Z,98448.80
2018-09-15T17:29:00.489Z,98448.14
2018-09-15T17:31:29.131Z,98455.06
2018-09-15T17:33:57.649Z,98461.59
2018-09-15T17:36:26.736Z,98467.04
2018-09-15T17:38:55.204Z,98471.66
2018-09-15T17:41:24.407Z,98438.99
2018-09-15T17:43:53.596Z,98477.11
2018-09-15T17:46:22.452Z,98478.53
2018-09-15T17:48:51.005Z,98479.78
2018-09-15T17:51:20.345Z,98489.39
2018-09-15T17:53:49.083Z,98490.00
2018-09-15T17:56:17.639Z,98489.89
2018-09-15T17:58:46.580Z,98495.38
2018-09-15T18:01:15.656Z,98503.87
2018-09-15T18:03:44.289Z,98497.48
2018-09-15T18:06:13.122Z,98511.64
2018-09-15T18:08:41.722Z,98507.45
2018-09-15T18:11:10.903Z,98517.60
2018-09-15T18:13:39.767Z,98515.89
2018-09-15T18:16:09.221Z,98519.20
2018-09-15T18:18:38.661Z,98517.17
2018-09-15T18:21:07.170Z,98521.13
2018-09-15T18:23:35.823Z,98513.83
2018-09-15T18:26:04.393Z,98518.84
2018-09-15T18:28:33.634Z,98516.59
2018-09-15T18:31:02.404Z,98525.59
2018-09-15T18:33:30.953Z,98523.53
2018-09-15T18:35:59.872Z,98527.19
2018-09-15T18:38:29.178Z,98533.81
2018-09-15T18:40:57.682Z,98535.39
2018-09-15T18:43:27.497Z,98539.13
2018-09-15T18:45:59.332Z,98510.80
2018-09-15T18:48:28.626Z,98545.97
2018-09-15T18:50:57.215Z,98548.00
2018-09-15T18:53:26.367Z,98554.05
2018-09-15T18:55:54.951Z,98552.78
2018-09-15T18:58:23.578Z,98554.25
2018-09-15T19:00:52.138Z,98553.42
2018-09-15T19:03:20.628Z,98547.56
2018-09-15T19:05:49.246Z,98553.89
2018-09-15T19:08:17.753Z,98548.30
2018-09-15T19:10:47.435Z,98548.39
2018-09-15T19:13:16.636Z,98551.31
2018-09-15T19:15:45.413Z,98553.91
2018-09-15T19:18:14.189Z,98555.97
2018-09-15T19:20:43.623Z,98551.73
2018-09-15T19:23:13.209Z,98552.83
2018-09-15T19:25:41.757Z,98557.24
2018-09-15T19:28:10.900Z,98548.67
2018-09-15T19:30:39.565Z,98557.24
2018-09-15T19:33:08.058Z,98559.31
2018-09-15T19:35:36.957Z,98562.06
2018-09-15T19:38:05.629Z,98562.36
2018-09-15T19:40:35.299Z,98561.17
2018-09-15T19:43:04.640Z,98558.06
2018-09-15T19:45:33.850Z,98555.51
2018-09-15T19:48:02.984Z,98563.45
2018-09-15T19:50:32.211Z,98563.19
2018-09-15T19:53:00.842Z,98553.78
2018-09-15T19:55:29.413Z,98555.14
2018-09-15T19:57:58.656Z,98557.06
2018-09-15T20:00:33.885Z,98562.00
2018-09-15T20:03:02.859Z,98559.52
2018-09-15T20:05:31.545Z,98567.31
2018-09-15T20:08:00.491Z,98565.91
2018-09-15T20:10:29.756Z,98567.52
2018-09-15T20:12:59.089Z,98560.17
2018-09-15T20:15:27.515Z,98566.75
2018-09-15T20:17:54.772Z,98572.78
2018-09-15T20:20:22.728Z,98583.28
2018-09-15T20:22:53.275Z,98579.22
2018-09-15T20:25:22.325Z,98582.48
2018-09-15T20:27:51.010Z,98582.48
2018-09-15T20:30:19.822Z,98578.14
2018-09-15T20:32:49.206Z,98583.98
2018-09-15T20:35:18.337Z,98583.89
2018-09-15T20:37:47.535Z,98580.69
2018-09-15T20:40:16.101Z,98577.48
2018-09-15T20:42:45.194Z,98578.36
2018-09-15T20:45:14.391Z,98583.52
2018-09-15T20:47:43.605Z,98585.44
2018-09-15T20:50:12.172Z,98575.74
2018-09-15T20:52:40.815Z,98577.47
2018-09-15T20:55:09.544Z,98581.73
2018-09-15T20:57:38.097Z,98579.22
2018-09-15T21:00:08.080Z,98579.95
2018-09-15T21:02:36.792Z,98581.13
2018-09-15T21:05:05.929Z,98579.66
2018-09-15T21:07:34.674Z,98576.14
2018-09-15T21:10:04.045Z,98538.51
2018-09-15T21:12:32.556Z,98578.50
2018-09-15T21:15:01.041Z,98577.90
2018-09-15T21:17:30.864Z,98575.65
2018-09-15T21:19:59.366Z,98581.89
2018-09-15T21:22:28.232Z,98580.04
2018-09-15T21:24:57.513Z,98578.98
2018-09-15T21:27:26.816Z,98579.05
2018-09-15T21:29:56.172Z,98576.22
2018-09-15T21:32:25.417Z,98576.13
2018-09-15T21:34:54.716Z,98577.92
2018-09-15T21:37:23.351Z,98575.88
2018-09-15T21:39:51.939Z,98582.27
2018-09-15T21:42:20.483Z,98582.20
2018-09-15T21:44:53.176Z,98581.59
2018-09-15T21:47:22.285Z,98590.30
2018-09-15T21:49:50.854Z,98588.20
2018-09-15T21:52:20.485Z,98590.36
2018-09-15T21:54:49.294Z,98584.98
2018-09-15T21:57:17.828Z,98593.84
2018-09-15T21:59:46.905Z,98588.83
2018-09-15T22:02:16.131Z,98591.05
2018-09-15T22:04:45.407Z,98592.22
2018-09-15T22:07:13.874Z,98593.23
2018-09-15T22:09:43.048Z,98597.55
2018-09-15T22:12:12.253Z,98595.77
2018-09-15T22:14:41.560Z,98600.30
2018-09-15T22:17:10.049Z,98595.89
2018-09-15T22:19:39.021Z,98600.66
2018-09-15T22:22:08.210Z,98598.19
2018-09-15T22:24:37.398Z,98601.63
2018-09-15T22:27:06.940Z,98598.95
2018-09-15T22:29:35.521Z,98599.09
2018-09-15T22:32:04.306Z,98598.95
2018-09-15T22:34:32.847Z,98604.98
2018-09-15T22:37:01.869Z,98606.34
2018-09-15T22:39:30.346Z,98599.95
2018-09-15T22:41:58.872Z,98605.73
2018-09-15T22:44:27.438Z,98599.30
2018-09-15T22:46:56.756Z,98597.48
2018-09-15T22:49:25.971Z,98593.41
2018-09-15T22:51:55.154Z,98597.79
2018-09-15T22:54:23.715Z,98595.33
2018-09-15T22:56:52.252Z,98594.61
2018-09-15T22:59:20.750Z,98589.52
2018-09-15T23:01:50.631Z,98592.34
2018-09-15T23:04:19.144Z,98587.09
2018-09-15T23:06:47.857Z,98587.99
2018-09-15T23:09:16.668Z,98587.53
2018-09-15T23:11:45.623Z,98588.64
2018-09-15T23:14:14.277Z,98587.59
2018-09-15T23:16:42.863Z,98586.10
2018-09-15T23:19:12.099Z,98581.58
2018-09-15T23:21:40.592Z,98583.23
2018-09-15T23:24:09.796Z,98559.70
2018-09-15T23:26:38.336Z,98578.16
2018-09-15T23:29:07.031Z,98578.30
2018-09-15T23:31:35.489Z,98578.42
2018-09-15T23:34:04.010Z,98580.50
2018-09-15T23:36:33.061Z,98578.64
2018-09-15T23:39:01.559Z,98577.83
2018-09-15T23:41:30.100Z,98581.39
2018-09-15T23:43:58.716Z,98577.07
2018-09-15T23:46:27.892Z,98579.66
2018-09-15T23:48:56.395Z,98583.03
2018-09-15T23:51:24.855Z,98579.59
2018-09-15T23:53:53.840Z,98575.87
2018-09-15T23:56:22.473Z,98571.16
2018-09-15T23:58:51.035Z,98567.77
